Time;durP1;ratioP1;P1;durP2;ratioP2;P2;SDS_P1;SDS_P2;PMS_P1;PMS_P2;Temp;Humidity;BMP_temperature;BMP_pressure;BME280_temperature;BME280_humidity;BME280_pressure;Samples;Min_cycle;Max_cycle;Signal;HPM_P1;HPM_P2
2022/04/13 00:00:25;;;;;;;22.20;3.00;;;4.70;99.40;;;;;;6213666;28;20295;-76
2022/04/13 00:03:30;;;;;;;15.10;2.07;;;4.70;99.80;;;;;;6213659;28;20295;-75
2022/04/13 00:06:38;;;;;;;13.57;2.30;;;4.70;99.10;;;;;;6213882;28;20271;-76
2022/04/13 00:09:43;;;;;;;15.13;2.20;;;4.70;99.50;;;;;;6224053;28;20311;-76
2022/04/13 00:12:49;;;;;;;10.77;2.23;;;4.70;99.10;;;;;;6237509;28;20601;-76
2022/04/13 00:15:56;;;;;;;15.23;2.93;;;4.80;99.60;;;;;;6238191;28;20275;-76
2022/04/13 00:19:01;;;;;;;15.03;2.43;;;4.80;99.90;;;;;;6237420;28;20605;-76
2022/04/13 00:22:06;;;;;;;10.87;2.00;;;4.80;99.80;;;;;;6237156;28;20399;-76
2022/04/13 00:25:12;;;;;;;19.50;2.30;;;4.80;99.90;;;;;;6237788;28;20276;-76
2022/04/13 00:28:18;;;;;;;14.10;2.57;;;4.80;99.90;;;;;;6237324;28;20298;-75
2022/04/13 00:31:25;;;;;;;27.57;2.30;;;4.80;99.90;;;;;;6237307;28;20562;-76
2022/04/13 00:34:30;;;;;;;17.17;2.93;;;4.80;99.90;;;;;;6236893;28;20299;-76
2022/04/13 00:37:38;;;;;;;19.33;2.40;;;4.80;99.90;;;;;;6237139;28;20295;-76
2022/04/13 00:40:43;;;;;;;18.97;2.57;;;4.80;99.90;;;;;;6237563;28;20275;-76
2022/04/13 00:44:03;;;;;;;6.10;2.00;;;4.80;99.90;;;;;;6237076;28;20297;-76
2022/04/13 00:47:10;;;;;;;8.53;2.10;;;4.80;99.90;;;;;;6236809;28;20276;-75
2022/04/13 00:50:15;;;;;;;5.17;1.77;;;4.80;99.90;;;;;;6237277;28;20279;-75
2022/04/13 00:53:22;;;;;;;4.93;2.10;;;4.70;99.90;;;;;;6236601;28;20298;-76
2022/04/13 00:56:29;;;;;;;13.30;2.30;;;4.70;99.90;;;;;;6236979;28;20474;-76
2022/04/13 00:59:38;;;;;;;15.20;2.27;;;4.70;99.90;;;;;;6236572;28;20305;-76
2022/04/13 01:02:45;;;;;;;7.37;2.27;;;4.70;99.90;;;;;;6236434;28;20314;-76
2022/04/13 01:05:52;;;;;;;26.87;2.50;;;4.70;99.90;;;;;;6236651;28;20457;-76
2022/04/13 01:08:57;;;;;;;11.20;2.13;;;4.60;99.90;;;;;;6236450;28;20305;-76
2022/04/13 01:12:03;;;;;;;13.23;1.93;;;4.70;99.90;;;;;;6214938;28;20276;-76
2022/04/13 01:15:10;;;;;;;25.83;2.37;;;4.70;99.90;;;;;;6211351;28;20280;-76
2022/04/13 01:18:19;;;;;;;31.47;3.33;;;4.70;99.90;;;;;;6212162;28;20319;-75
2022/04/13 01:21:42;;;;;;;38.23;3.43;;;4.70;99.90;;;;;;6212594;28;20434;-75
2022/04/13 01:24:49;;;;;;;38.87;3.20;;;4.70;99.90;;;;;;6212012;28;20586;-76
2022/04/13 01:27:55;;;;;;;24.63;2.87;;;4.70;99.90;;;;;;6211993;28;20295;-75
2022/04/13 01:31:00;;;;;;;35.90;3.10;;;4.70;99.90;;;;;;6212514;28;20276;-75
2022/04/13 01:34:06;;;;;;;13.77;2.60;;;4.70;99.90;;;;;;6212118;28;20300;-76
2022/04/13 01:37:11;;;;;;;26.87;3.03;;;4.70;99.90;;;;;;6211994;28;20270;-76
2022/04/13 01:40:18;;;;;;;16.80;2.63;;;4.70;99.90;;;;;;6212008;28;20275;-76
2022/04/13 01:43:24;;;;;;;24.20;2.63;;;4.70;99.90;;;;;;6211762;28;20598;-76
2022/04/13 01:46:29;;;;;;;18.23;2.30;;;4.60;99.90;;;;;;6212278;28;20312;-75
2022/04/13 01:49:35;;;;;;;14.00;2.20;;;4.60;99.90;;;;;;6211721;28;20304;-74
2022/04/13 01:52:40;;;;;;;8.37;2.50;;;4.70;99.90;;;;;;6226370;28;20300;-75
2022/04/13 01:55:47;;;;;;;9.60;1.87;;;4.70;99.90;;;;;;6212430;28;20271;-76
2022/04/13 01:58:52;;;;;;;10.33;2.00;;;4.70;99.90;;;;;;6211545;28;20600;-76
2022/04/13 02:01:57;;;;;;;6.60;1.77;;;4.60;99.90;;;;;;6226758;28;20299;-76
2022/04/13 02:05:05;;;;;;;2.27;2.07;;;4.70;99.90;;;;;;6211416;28;20300;-76
2022/04/13 02:08:15;;;;;;;4.93;1.70;;;4.70;99.90;;;;;;6211710;28;20304;-76
2022/04/13 02:11:22;;;;;;;2.30;1.80;;;4.60;99.90;;;;;;6235789;28;20292;-76
2022/04/13 02:14:27;;;;;;;2.80;1.73;;;4.60;99.90;;;;;;6234577;28;20299;-76
2022/04/13 02:17:33;;;;;;;4.60;2.10;;;4.60;99.90;;;;;;6236924;28;20294;-76
2022/04/13 02:20:38;;;;;;;1.90;1.63;;;4.60;99.90;;;;;;6240707;28;20271;-76
2022/04/13 02:23:43;;;;;;;2.47;1.90;;;4.60;99.90;;;;;;6222888;28;20597;-76
2022/04/13 02:26:50;;;;;;;3.03;1.50;;;4.60;99.90;;;;;;6240364;28;20273;-76
2022/04/13 02:29:55;;;;;;;6.57;1.87;;;4.60;99.90;;;;;;6240148;28;20307;-75
2022/04/13 02:33:01;;;;;;;3.63;1.70;;;4.60;99.90;;;;;;6240079;28;20305;-75
2022/04/13 02:36:08;;;;;;;3.37;1.60;;;4.60;99.90;;;;;;6240186;28;20275;-76
2022/04/13 02:39:13;;;;;;;2.93;1.70;;;4.60;99.90;;;;;;6239631;28;20303;-76
2022/04/13 02:42:20;;;;;;;3.53;1.80;;;4.50;99.90;;;;;;6239570;28;20278;-76
2022/04/13 02:45:25;;;;;;;5.63;1.90;;;4.50;99.90;;;;;;6240238;28;20271;-75
2022/04/13 02:48:30;;;;;;;9.93;2.23;;;4.50;99.90;;;;;;6239259;28;20298;-76
2022/04/13 02:51:35;;;;;;;5.20;1.80;;;4.50;99.90;;;;;;6239684;28;20268;-76
2022/04/13 02:54:41;;;;;;;10.43;2.40;;;4.50;99.90;;;;;;6239448;28;20302;-76
2022/04/13 02:57:47;;;;;;;5.73;1.70;;;4.50;99.90;;;;;;6222082;28;20295;-75
2022/04/13 03:00:54;;;;;;;6.17;1.73;;;4.40;99.90;;;;;;6232766;28;20279;-76
2022/04/13 03:04:00;;;;;;;7.03;1.70;;;4.40;99.90;;;;;;6233441;28;20477;-76
2022/04/13 03:07:06;;;;;;;2.57;1.50;;;4.30;99.90;;;;;;6239113;28;20272;-76
2022/04/13 03:10:11;;;;;;;2.63;1.60;;;4.30;99.90;;;;;;6234677;28;20292;-76
2022/04/13 03:13:18;;;;;;;2.00;1.70;;;4.30;99.90;;;;;;6215010;28;20316;-76
2022/04/13 03:16:24;;;;;;;1.80;1.47;;;4.20;99.90;;;;;;6215194;28;20279;-76
2022/04/13 03:19:29;;;;;;;1.83;1.70;;;4.20;99.90;;;;;;6225724;28;20303;-76
2022/04/13 03:22:35;;;;;;;3.37;1.77;;;4.10;99.90;;;;;;6238836;28;20291;-75
2022/04/13 03:25:40;;;;;;;10.50;1.70;;;4.10;99.90;;;;;;6238971;28;20481;-76
2022/04/13 03:28:47;;;;;;;7.00;1.90;;;4.10;99.90;;;;;;6238153;28;20298;-76
2022/04/13 03:31:52;;;;;;;7.90;2.10;;;4.00;99.90;;;;;;6238598;28;20275;-76
2022/04/13 03:35:00;;;;;;;9.60;2.00;;;4.00;99.90;;;;;;6238394;28;20283;-75
2022/04/13 03:38:07;;;;;;;7.53;2.40;;;4.00;99.90;;;;;;6214467;28;20300;-76
2022/04/13 03:41:12;;;;;;;6.17;2.17;;;3.90;99.90;;;;;;6214712;28;20272;-75
2022/04/13 03:44:19;;;;;;;6.57;1.80;;;3.90;99.90;;;;;;6213865;28;20376;-76
2022/04/13 03:47:24;;;;;;;2.33;2.00;;;3.80;99.90;;;;;;6214353;28;20295;-76
2022/04/13 03:50:29;;;;;;;6.20;2.10;;;3.80;99.90;;;;;;6214275;28;20279;-76
2022/04/13 03:53:34;;;;;;;5.57;1.60;;;3.80;99.90;;;;;;6213968;28;20307;-76
2022/04/13 03:56:40;;;;;;;4.17;1.80;;;3.80;99.90;;;;;;6228899;28;20280;-75
2022/04/13 03:59:46;;;;;;;5.80;1.60;;;3.80;99.90;;;;;;6213199;28;20304;-75
2022/04/13 04:02:51;;;;;;;2.93;1.70;;;3.80;99.90;;;;;;6214062;28;20571;-76
2022/04/13 04:05:57;;;;;;;4.33;1.80;;;3.70;99.90;;;;;;6214024;28;20295;-76
2022/04/13 04:09:02;;;;;;;4.90;1.60;;;3.70;99.90;;;;;;6218330;28;20318;-75
2022/04/13 04:12:09;;;;;;;4.47;2.00;;;3.70;99.90;;;;;;6237474;28;20314;-76
2022/04/13 04:15:16;;;;;;;1.80;1.70;;;3.70;99.90;;;;;;6237997;28;20462;-75
2022/04/13 04:18:21;;;;;;;3.77;1.83;;;3.80;99.90;;;;;;6237615;28;20617;-75
2022/04/13 04:21:27;;;;;;;7.47;1.90;;;3.80;99.90;;;;;;6237414;28;20550;-76
2022/04/13 04:24:32;;;;;;;7.40;1.80;;;3.90;99.90;;;;;;6237231;28;20307;-75
2022/04/13 04:27:37;;;;;;;10.97;1.90;;;4.00;99.90;;;;;;6237319;28;20293;-76
2022/04/13 04:30:44;;;;;;;7.53;1.87;;;4.00;99.90;;;;;;6237283;28;20270;-76
2022/04/13 04:33:49;;;;;;;1.87;1.73;;;4.00;99.90;;;;;;6219701;28;20303;-76
2022/04/13 04:36:55;;;;;;;6.47;2.30;;;4.10;99.90;;;;;;6237518;28;20274;-76
2022/04/13 04:40:00;;;;;;;5.37;1.80;;;4.20;99.90;;;;;;6236026;28;20282;-76
2022/04/13 04:43:06;;;;;;;7.23;2.10;;;4.20;99.90;;;;;;6236871;28;20585;-76
2022/04/13 04:46:13;;;;;;;11.23;2.10;;;4.20;99.90;;;;;;6237268;28;20293;-76
2022/04/13 04:49:18;;;;;;;4.10;2.00;;;4.30;99.90;;;;;;6236650;28;20291;-76
2022/04/13 04:52:24;;;;;;;9.13;1.90;;;4.30;99.90;;;;;;6236169;28;20569;-75
2022/04/13 04:55:29;;;;;;;1.90;1.80;;;4.30;99.90;;;;;;6236791;28;20282;-75
2022/04/13 04:58:34;;;;;;;12.00;2.10;;;4.40;99.90;;;;;;6236564;28;20304;-75
2022/04/13 05:01:41;;;;;;;7.03;1.63;;;4.50;99.90;;;;;;6237196;28;20273;-76
2022/04/13 05:04:46;;;;;;;10.00;2.03;;;4.50;99.90;;;;;;6236546;28;20458;-76
2022/04/13 05:07:51;;;;;;;6.07;1.60;;;4.60;99.90;;;;;;6236020;28;20294;-77
2022/04/13 05:10:57;;;;;;;13.13;1.60;;;4.70;99.90;;;;;;6202111;28;20297;-75
2022/04/13 05:14:02;;;;;;;5.90;1.80;;;4.70;99.90;;;;;;6187810;28;20607;-77
2022/04/13 05:17:08;;;;;;;3.87;1.97;;;4.80;99.90;;;;;;6187735;28;20340;-77
2022/04/13 05:20:14;;;;;;;5.67;1.90;;;4.90;99.90;;;;;;6188032;28;20277;-77
2022/04/13 05:23:19;;;;;;;3.20;2.17;;;5.00;99.90;;;;;;6187375;28;20299;-76
2022/04/13 05:26:24;;;;;;;4.20;1.97;;;5.10;99.90;;;;;;6187712;28;20294;-76
2022/04/13 05:29:30;;;;;;;4.60;1.70;;;5.10;99.90;;;;;;6187239;28;20300;-76
2022/04/13 05:32:49;;;;;;;4.60;1.80;;;5.20;99.90;;;;;;6187195;28;20429;-76
2022/04/13 05:35:54;;;;;;;7.10;1.80;;;5.20;99.90;;;;;;6188162;28;20277;-77
2022/04/13 05:38:59;;;;;;;6.07;2.57;;;5.30;99.90;;;;;;6187671;28;20305;-77
2022/04/13 05:42:05;;;;;;;3.77;2.47;;;5.30;99.90;;;;;;6187491;28;20280;-77
2022/04/13 05:45:13;;;;;;;7.50;2.00;;;5.40;99.90;;;;;;6187783;28;20292;-76
2022/04/13 05:48:20;;;;;;;3.30;2.07;;;5.50;99.90;;;;;;6187352;28;20611;-77
2022/04/13 05:51:25;;;;;;;6.53;1.50;;;5.50;99.90;;;;;;6188568;28;20556;-76
2022/04/13 05:54:30;;;;;;;4.53;1.40;;;5.60;99.90;;;;;;6191986;28;20309;-77
2022/04/13 05:57:36;;;;;;;5.93;1.70;;;5.70;99.90;;;;;;6192057;28;20588;-76
2022/04/13 06:00:41;;;;;;;10.33;1.77;;;5.80;99.90;;;;;;6192585;28;20276;-76
2022/04/13 06:03:48;;;;;;;5.97;1.50;;;5.80;99.90;;;;;;6174388;28;20304;-77
2022/04/13 06:06:55;;;;;;;9.43;2.00;;;5.90;99.90;;;;;;6192139;28;20300;-75
2022/04/13 06:10:01;;;;;;;6.97;1.90;;;5.90;99.40;;;;;;6209020;28;20299;-76
2022/04/13 06:13:07;;;;;;;4.57;1.40;;;6.00;99.30;;;;;;6239911;28;20307;-76
2022/04/13 06:16:12;;;;;;;3.50;1.53;;;6.10;98.30;;;;;;6240654;28;20272;-76
2022/04/13 06:19:19;;;;;;;7.20;1.70;;;6.10;98.20;;;;;;6240082;28;20299;-76
2022/04/13 06:22:25;;;;;;;7.80;1.73;;;6.20;97.80;;;;;;6239986;28;20466;-76
2022/04/13 06:25:31;;;;;;;16.63;2.20;;;6.30;97.20;;;;;;6240676;28;20299;-76
2022/04/13 06:28:36;;;;;;;8.53;2.17;;;6.30;97.10;;;;;;6239807;28;20343;-77
2022/04/13 06:31:41;;;;;;;15.30;2.30;;;6.40;97.20;;;;;;6240536;28;20293;-76
2022/04/13 06:34:48;;;;;;;4.23;2.07;;;6.50;97.00;;;;;;6239649;28;20291;-76
2022/04/13 06:37:52;;;;;;;20.40;2.93;;;6.60;97.00;;;;;;6239406;28;20296;-76
2022/04/13 06:40:58;;;;;;;11.50;2.30;;;6.70;96.50;;;;;;6240403;28;20447;-76
2022/04/13 06:44:03;;;;;;;13.97;2.10;;;6.80;96.10;;;;;;6221889;28;20304;-76
2022/04/13 06:47:08;;;;;;;6.13;1.83;;;6.80;95.60;;;;;;6239006;28;20299;-76
2022/04/13 06:50:15;;;;;;;10.33;1.60;;;6.90;95.60;;;;;;6239577;28;20272;-77
2022/04/13 06:53:21;;;;;;;5.77;1.73;;;7.00;95.30;;;;;;6239458;28;20320;-77
2022/04/13 06:56:26;;;;;;;16.60;2.10;;;7.00;95.30;;;;;;6239716;28;20442;-77
2022/04/13 06:59:31;;;;;;;12.63;1.80;;;7.10;94.70;;;;;;6239305;28;20579;-76
2022/04/13 07:02:37;;;;;;;6.07;1.87;;;7.20;94.30;;;;;;6238466;28;20296;-76
2022/04/13 07:06:04;;;;;;;11.23;2.20;;;7.10;93.00;;;;;;6239525;28;20300;-76
2022/04/13 07:09:29;;;;;;;12.80;1.92;;;7.30;92.50;;;;;;6238342;28;20304;-77
2022/04/13 07:12:36;;;;;;;9.53;1.77;;;7.30;91.90;;;;;;6238516;28;20308;-76
2022/04/13 07:15:41;;;;;;;12.53;1.80;;;7.30;89.50;;;;;;6239228;28;20280;-77
2022/04/13 07:18:46;;;;;;;8.20;1.77;;;7.40;88.90;;;;;;6238408;28;20300;-77
2022/04/13 07:21:52;;;;;;;8.43;1.40;;;7.50;85.50;;;;;;6239193;28;20273;-77
2022/04/13 07:25:07;;;;;;;6.43;1.50;;;7.50;80.70;;;;;;6238256;28;20269;-79
2022/04/13 07:28:14;;;;;;;6.10;2.20;;;7.60;80.20;;;;;;6238461;28;20301;-76
2022/04/13 07:31:20;;;;;;;4.07;1.52;;;7.70;81.40;;;;;;6238480;28;20272;-76
2022/04/13 07:34:25;;;;;;;1.55;1.10;;;7.80;76.00;;;;;;6238497;28;20301;-77
2022/04/13 07:37:32;;;;;;;10.50;1.80;;;7.80;75.10;;;;;;6220660;28;20477;-76
2022/04/13 07:40:38;;;;;;;1.63;1.20;;;7.90;75.80;;;;;;6238671;28;20272;-76
2022/04/13 07:43:43;;;;;;;6.70;1.15;;;7.90;70.80;;;;;;6238423;28;20387;-75
2022/04/13 07:46:49;;;;;;;16.30;1.60;;;7.90;70.00;;;;;;6238314;28;20292;-76
2022/04/13 07:49:54;;;;;;;8.63;1.48;;;8.00;68.50;;;;;;6237976;28;20296;-76
2022/04/13 07:53:01;;;;;;;7.55;1.45;;;8.20;70.50;;;;;;6220241;28;20304;-75
2022/04/13 07:56:07;;;;;;;3.53;1.65;;;8.30;68.70;;;;;;6238579;28;20268;-75
2022/04/13 07:59:13;;;;;;;4.40;1.45;;;8.20;68.10;;;;;;6237873;28;20307;-76
2022/04/13 08:02:20;;;;;;;8.75;1.33;;;8.40;69.60;;;;;;6237937;28;20292;-80
2022/04/13 08:05:26;;;;;;;9.52;1.60;;;8.50;67.90;;;;;;6221015;28;20463;-76
2022/04/13 08:08:33;;;;;;;6.13;1.40;;;8.60;67.90;;;;;;6235951;28;20296;-76
2022/04/13 08:11:38;;;;;;;6.70;1.30;;;8.70;65.40;;;;;;6219648;28;20278;-76
2022/04/13 08:14:46;;;;;;;1.95;1.50;;;8.80;63.20;;;;;;6212486;28;20316;-76
2022/04/13 08:17:52;;;;;;;7.15;1.30;;;8.90;61.80;;;;;;6212893;28;20302;-78
2022/04/13 08:20:59;;;;;;;3.78;1.30;;;9.00;61.60;;;;;;6213481;28;20277;-76
2022/04/13 08:24:07;;;;;;;5.78;1.35;;;9.00;59.30;;;;;;6213228;28;20297;-77
2022/04/13 08:27:13;;;;;;;10.50;1.10;;;9.10;60.70;;;;;;6213070;28;20293;-77
2022/04/13 08:30:18;;;;;;;1.48;1.25;;;9.20;60.70;;;;;;6213540;28;20576;-76
2022/04/13 08:33:24;;;;;;;9.88;1.42;;;9.30;60.30;;;;;;6212958;28;20604;-79
2022/04/13 08:36:29;;;;;;;2.78;1.48;;;9.30;59.90;;;;;;6213131;28;20583;-76
2022/04/13 08:39:37;;;;;;;10.57;1.42;;;9.50;60.40;;;;;;6212613;28;20300;-78
2022/04/13 08:42:47;;;;;;;14.90;1.42;;;9.50;59.40;;;;;;6212152;28;20572;-76
2022/04/13 08:45:57;;;;;;;10.30;2.17;;;9.60;58.70;;;;;;6212936;28;20289;-78
2022/04/13 08:49:06;;;;;;;3.08;1.30;;;9.60;58.30;;;;;;6212612;28;20296;-78
2022/04/13 08:52:33;;;;;;;10.63;1.58;;;9.60;56.40;;;;;;6212392;28;20293;-76
2022/04/13 08:55:49;;;;;;;3.75;1.48;;;9.70;55.60;;;;;;6212919;28;20301;-76
2022/04/13 08:59:02;;;;;;;1.20;1.20;;;9.70;54.50;;;;;;6212312;28;20349;-76
2022/04/13 09:02:18;;;;;;;3.45;1.27;;;9.80;55.80;;;;;;6211991;28;20391;-76
2022/04/13 09:05:26;;;;;;;7.20;1.95;;;9.90;55.20;;;;;;6212819;28;20269;-76
2022/04/13 09:08:40;;;;;;;5.07;1.25;;;10.00;54.20;;;;;;6210915;28;20325;-75
2022/04/13 09:11:47;;;;;;;3.00;1.30;;;10.20;54.30;;;;;;6236906;28;20264;-76
2022/04/13 09:14:52;;;;;;;11.93;2.42;;;10.20;53.60;;;;;;6236401;28;20304;-77
2022/04/13 09:17:57;;;;;;;13.75;2.30;;;10.20;52.50;;;;;;6236362;28;20300;-76
2022/04/13 09:21:03;;;;;;;9.45;2.08;;;10.30;52.90;;;;;;6236648;28;20272;-76
2022/04/13 09:24:14;;;;;;;7.05;1.30;;;10.40;52.20;;;;;;6235713;28;20304;-76
2022/04/13 09:27:21;;;;;;;5.57;1.00;;;10.30;51.50;;;;;;6235843;28;20292;-76
2022/04/13 09:30:27;;;;;;;7.95;1.17;;;10.30;52.70;;;;;;6236263;28;20467;-77
2022/04/13 09:33:32;;;;;;;17.83;1.50;;;10.40;53.40;;;;;;6235973;28;20332;-76
2022/04/13 09:36:37;;;;;;;7.78;1.30;;;10.40;52.20;;;;;;6236219;28;20290;-78
2022/04/13 09:39:43;;;;;;;4.88;1.15;;;10.40;50.70;;;;;;6235798;28;20583;-75
2022/04/13 09:42:50;;;;;;;5.43;1.30;;;10.50;50.90;;;;;;6235779;28;20476;-77
2022/04/13 09:45:57;;;;;;;2.20;1.30;;;10.60;50.60;;;;;;6236582;28;20277;-77
2022/04/13 09:49:10;;;;;;;4.93;1.17;;;10.50;49.10;;;;;;6235596;28;20317;-74
2022/04/13 09:52:16;;;;;;;5.90;1.25;;;10.50;49.40;;;;;;6235679;28;20272;-73
2022/04/13 09:55:23;;;;;;;4.63;1.50;;;10.60;49.80;;;;;;6236264;28;20269;-75
2022/04/13 09:58:30;;;;;;;1.50;1.40;;;10.60;49.80;;;;;;6235283;28;20314;-79
2022/04/13 10:01:37;;;;;;;1.45;1.25;;;10.60;49.80;;;;;;6236064;28;20544;-78
2022/04/13 10:04:42;;;;;;;1.25;0.80;;;10.70;49.80;;;;;;6235341;28;20481;-78
2022/04/13 10:08:02;;;;;;;11.45;1.92;;;10.80;50.50;;;;;;6235056;28;20284;-83
2022/04/13 10:11:09;;;;;;;1.65;1.13;;;10.70;48.80;;;;;;6220821;28;20294;-76
2022/04/13 10:14:20;;;;;;;12.02;1.60;;;10.70;49.20;;;;;;6211614;28;20332;-76
2022/04/13 10:17:26;;;;;;;3.90;1.20;;;10.70;49.10;;;;;;6211451;28;20318;-76
2022/04/13 10:20:46;;;;;;;6.22;1.10;;;10.80;48.60;;;;;;6211409;28;20465;-75
2022/04/13 10:23:51;;;;;;;1.45;1.00;;;10.70;48.20;;;;;;6211229;28;20298;-75
2022/04/13 10:27:04;;;;;;;5.72;1.20;;;10.70;47.40;;;;;;6210991;28;20277;-78
2022/04/13 10:30:14;;;;;;;5.18;1.02;;;10.70;47.00;;;;;;6211015;28;20293;-75
2022/04/13 10:33:19;;;;;;;4.10;0.98;;;10.80;47.20;;;;;;6211127;28;20296;-77
2022/04/13 10:36:24;;;;;;;3.42;1.15;;;10.80;46.70;;;;;;6211361;28;20273;-77
2022/04/13 10:39:30;;;;;;;7.15;1.10;;;10.80;46.00;;;;;;6213687;28;20301;-76
2022/04/13 10:42:48;;;;;;;1.10;1.00;;;10.80;46.10;;;;;;6230093;28;20312;-77
2022/04/13 10:45:55;;;;;;;5.28;1.13;;;11.00;46.60;;;;;;6215705;28;20269;-76
2022/04/13 10:49:07;;;;;;;0.82;0.75;;;11.10;46.50;;;;;;6215348;28;20301;-76
2022/04/13 10:52:17;;;;;;;2.38;1.13;;;11.10;46.70;;;;;;6215088;28;20273;-76
2022/04/13 10:55:23;;;;;;;1.17;0.88;;;11.40;46.80;;;;;;6215451;28;20564;-75
2022/04/13 10:58:47;;;;;;;0.90;0.90;;;11.40;46.30;;;;;;6215272;28;20301;-75
2022/04/13 11:01:59;;;;;;;1.02;1.02;;;11.40;46.70;;;;;;6215211;28;20269;-75
2022/04/13 11:05:05;;;;;;;3.97;1.40;;;11.40;46.50;;;;;;6214805;28;20280;-76
2022/04/13 11:08:22;;;;;;;2.03;1.38;;;11.30;46.40;;;;;;6214866;28;20304;-76
2022/04/13 11:11:31;;;;;;;1.85;0.90;;;11.10;47.10;;;;;;6214672;28;20293;-76
2022/04/13 11:14:50;;;;;;;4.53;1.50;;;11.20;47.00;;;;;;6214397;28;20297;-76
2022/04/13 11:18:10;;;;;;;8.10;1.40;;;11.30;46.80;;;;;;6214481;28;20580;-76
2022/04/13 11:21:15;;;;;;;2.53;0.88;;;11.30;46.40;;;;;;6214796;28;20280;-76
2022/04/13 11:24:33;;;;;;;8.98;1.10;;;11.30;47.00;;;;;;6213670;28;20297;-76
2022/04/13 11:27:51;;;;;;;0.95;0.95;;;11.10;46.40;;;;;;6214096;28;20450;-77
2022/04/13 11:31:05;;;;;;;3.08;1.05;;;11.20;47.00;;;;;;6214253;28;20484;-77
2022/04/13 11:34:11;;;;;;;3.00;1.10;;;11.20;48.30;;;;;;6214256;28;20304;-77
2022/04/13 11:37:19;;;;;;;1.10;1.05;;;11.10;48.30;;;;;;6214068;28;20584;-76
2022/04/13 11:40:24;;;;;;;1.95;0.90;;;11.10;48.10;;;;;;6214124;28;20298;-76
2022/04/13 11:43:30;;;;;;;0.80;0.80;;;11.30;48.80;;;;;;6214139;28;20297;-77
2022/04/13 11:46:38;;;;;;;8.20;0.98;;;11.20;47.90;;;;;;6213839;28;20289;-79
2022/04/13 11:49:57;;;;;;;2.17;0.93;;;11.30;47.90;;;;;;6213345;28;20313;-75
2022/04/13 11:53:08;;;;;;;0.93;0.80;;;11.40;47.80;;;;;;6214007;28;20301;-80
2022/04/13 11:56:14;;;;;;;3.35;1.10;;;11.30;48.50;;;;;;6214272;28;20269;-78
2022/04/13 11:59:46;;;;;;;5.05;1.00;;;11.20;47.30;;;;;;6213088;28;20305;-77
2022/04/13 12:02:52;;;;;;;3.25;0.93;;;11.10;47.50;;;;;;6213589;28;20288;-77
2022/04/13 12:06:01;;;;;;;0.70;0.70;;;11.30;47.90;;;;;;6214037;28;20273;-76
2022/04/13 12:09:08;;;;;;;5.85;1.20;;;11.20;48.00;;;;;;6218308;28;20308;-76
2022/04/13 12:12:17;;;;;;;1.08;0.90;;;11.30;48.90;;;;;;6213851;28;20285;-75
2022/04/13 12:15:23;;;;;;;1.00;1.00;;;11.30;47.90;;;;;;6213621;28;20273;-74
2022/04/13 12:18:30;;;;;;;4.22;1.10;;;11.10;47.70;;;;;;6213201;28;20297;-74
2022/04/13 12:21:38;;;;;;;3.10;1.10;;;11.30;49.00;;;;;;6213062;28;20272;-74
2022/04/13 12:24:59;;;;;;;3.92;0.93;;;11.20;48.40;;;;;;6212910;28;20297;-74
2022/04/13 12:28:05;;;;;;;0.90;0.90;;;11.10;49.60;;;;;;6211272;28;20292;-74
2022/04/13 12:31:13;;;;;;;2.35;1.00;;;11.10;50.00;;;;;;6213500;28;20289;-74
2022/04/13 12:34:20;;;;;;;3.35;0.98;;;11.00;50.30;;;;;;6212725;28;20301;-75
2022/04/13 12:37:28;;;;;;;3.72;1.27;;;11.00;50.70;;;;;;6212645;28;20300;-74
2022/04/13 12:40:33;;;;;;;0.95;0.95;;;10.90;51.50;;;;;;6213142;28;20276;-74
2022/04/13 12:43:41;;;;;;;4.55;1.27;;;10.70;51.80;;;;;;6212158;28;20335;-74
2022/04/13 12:46:46;;;;;;;1.38;0.95;;;10.70;50.90;;;;;;6212545;28;20294;-74
2022/04/13 12:50:01;;;;;;;3.15;0.98;;;10.40;50.40;;;;;;6212076;28;20297;-74
2022/04/13 12:53:07;;;;;;;3.75;0.90;;;10.60;51.90;;;;;;6212264;28;20301;-74
2022/04/13 12:56:16;;;;;;;1.05;1.05;;;10.50;50.80;;;;;;6212654;28;20273;-74
2022/04/13 12:59:23;;;;;;;1.27;1.00;;;10.50;51.90;;;;;;6212416;28;20301;-74
2022/04/13 13:02:28;;;;;;;2.42;0.95;;;10.40;53.10;;;;;;6211230;28;20297;-74
2022/04/13 13:05:40;;;;;;;1.25;1.15;;;10.40;52.40;;;;;;6212301;28;20273;-74
2022/04/13 13:08:55;;;;;;;2.92;1.00;;;10.40;52.60;;;;;;6214068;28;20301;-74
2022/04/13 13:12:02;;;;;;;1.92;1.10;;;10.40;53.00;;;;;;6236175;28;20285;-75
2022/04/13 13:15:09;;;;;;;1.95;0.80;;;10.40;54.00;;;;;;6236447;28;20273;-74
2022/04/13 13:18:20;;;;;;;2.05;1.00;;;10.20;54.30;;;;;;6236064;28;20319;-75
2022/04/13 13:21:25;;;;;;;3.40;1.05;;;10.10;53.70;;;;;;6236724;28;20282;-75
2022/04/13 13:24:32;;;;;;;1.58;1.23;;;10.10;54.00;;;;;;6236310;28;20304;-75
2022/04/13 13:27:39;;;;;;;6.53;1.13;;;10.10;54.60;;;;;;6236230;28;20604;-75
2022/04/13 13:30:45;;;;;;;4.00;1.10;;;10.10;55.60;;;;;;6236552;28;20268;-75
2022/04/13 13:33:54;;;;;;;2.05;1.08;;;10.00;56.70;;;;;;6235763;28;20300;-75
2022/04/13 13:36:59;;;;;;;3.05;1.30;;;9.90;58.00;;;;;;6236039;28;20268;-75
2022/04/13 13:40:31;;;;;;;3.22;1.02;;;9.90;58.60;;;;;;6236614;28;20272;-75
2022/04/13 13:43:38;;;;;;;4.72;1.20;;;9.90;59.90;;;;;;6236093;28;20304;-75
2022/04/13 13:46:44;;;;;;;4.72;1.13;;;9.80;61.30;;;;;;6236505;28;20272;-75
2022/04/13 13:49:49;;;;;;;5.80;1.15;;;9.80;63.70;;;;;;6235902;28;20308;-75
2022/04/13 13:52:58;;;;;;;6.10;1.08;;;9.60;66.30;;;;;;6235494;28;20296;-73
2022/04/13 13:56:06;;;;;;;3.50;1.10;;;9.60;67.80;;;;;;6236375;28;20272;-76
2022/04/13 13:59:11;;;;;;;7.45;1.30;;;9.70;70.30;;;;;;6235983;28;20292;-74
2022/04/13 14:02:16;;;;;;;3.38;1.30;;;9.60;71.20;;;;;;6235752;28;20312;-74
2022/04/13 14:05:23;;;;;;;1.85;1.33;;;9.60;73.00;;;;;;6236091;28;20272;-74
2022/04/13 14:08:28;;;;;;;3.13;1.20;;;9.50;74.70;;;;;;6235632;28;20308;-74
2022/04/13 14:11:40;;;;;;;1.45;1.20;;;9.50;76.70;;;;;;6217101;28;20465;-73
2022/04/13 14:14:45;;;;;;;5.18;1.58;;;9.50;78.90;;;;;;6214767;28;20584;-74
2022/04/13 14:17:51;;;;;;;2.50;1.30;;;9.50;78.20;;;;;;6215689;28;20293;-74
2022/04/13 14:20:56;;;;;;;2.58;1.30;;;9.50;77.80;;;;;;6215964;28;20272;-75
2022/04/13 14:24:02;;;;;;;1.48;1.40;;;9.50;78.70;;;;;;6216177;28;20619;-74
2022/04/13 14:27:10;;;;;;;7.65;1.30;;;9.40;80.50;;;;;;6215720;28;20278;-74
2022/04/13 14:30:18;;;;;;;2.15;1.27;;;9.10;86.10;;;;;;6216347;28;20273;-73
2022/04/13 14:33:23;;;;;;;5.43;1.50;;;9.10;88.70;;;;;;6215299;28;20608;-74
2022/04/13 14:36:29;;;;;;;1.35;1.30;;;9.20;90.30;;;;;;6216157;28;20273;-74
2022/04/13 14:39:34;;;;;;;1.60;1.30;;;9.30;90.40;;;;;;6215742;28;20293;-74
2022/04/13 14:42:41;;;;;;;6.43;1.42;;;9.30;90.20;;;;;;6215486;28;20296;-74
2022/04/13 14:45:46;;;;;;;6.07;1.73;;;9.20;90.30;;;;;;6216086;28;20308;-74
2022/04/13 14:48:51;;;;;;;10.70;1.88;;;9.10;91.10;;;;;;6215291;28;20297;-74
2022/04/13 14:51:57;;;;;;;5.18;1.80;;;9.10;91.40;;;;;;6214987;28;20273;-74
2022/04/13 14:55:04;;;;;;;3.13;1.70;;;9.10;91.50;;;;;;6214610;28;20282;-73
2022/04/13 14:58:14;;;;;;;3.00;1.75;;;9.10;91.80;;;;;;6215002;28;20297;-76
2022/04/13 15:01:20;;;;;;;4.13;1.60;;;9.10;91.40;;;;;;6215212;28;20468;-75
2022/04/13 15:04:27;;;;;;;15.13;2.33;;;9.10;91.80;;;;;;6214731;28;20292;-75
2022/04/13 15:07:32;;;;;;;3.00;1.67;;;9.10;91.40;;;;;;6214768;28;20312;-74
2022/04/13 15:10:38;;;;;;;4.07;1.58;;;9.00;91.90;;;;;;6232022;28;20308;-74
2022/04/13 15:13:44;;;;;;;10.45;1.70;;;9.00;91.80;;;;;;6238463;28;20308;-73
2022/04/13 15:16:49;;;;;;;4.53;1.83;;;9.00;92.20;;;;;;6238764;28;20272;-74
2022/04/13 15:19:55;;;;;;;2.47;1.60;;;8.90;92.70;;;;;;6238874;28;20296;-74
2022/04/13 15:23:00;;;;;;;3.85;1.83;;;8.90;92.60;;;;;;6238551;28;20296;-74
2022/04/13 15:26:06;;;;;;;2.22;2.10;;;8.90;93.10;;;;;;6238749;28;20567;-74
2022/04/13 15:29:13;;;;;;;2.30;2.20;;;8.90;93.60;;;;;;6238674;28;20296;-74
2022/04/13 15:32:18;;;;;;;2.60;2.30;;;8.90;94.20;;;;;;6238147;28;20549;-74
2022/04/13 15:35:23;;;;;;;2.78;2.30;;;8.90;94.50;;;;;;6238768;28;20272;-74
2022/04/13 15:38:30;;;;;;;2.50;2.05;;;8.70;95.50;;;;;;6220858;28;20300;-75
2022/04/13 15:41:35;;;;;;;3.45;2.00;;;8.70;95.80;;;;;;6238413;28;20456;-74
2022/04/13 15:44:45;;;;;;;8.38;2.10;;;8.80;96.00;;;;;;6237804;28;20297;-74
2022/04/13 15:47:51;;;;;;;5.25;1.63;;;8.70;96.80;;;;;;6238102;28;20373;-74
2022/04/13 15:50:56;;;;;;;5.72;1.77;;;8.80;96.90;;;;;;6238370;28;20451;-76
2022/04/13 15:54:02;;;;;;;5.35;1.65;;;8.80;97.40;;;;;;6237806;28;20320;-77
2022/04/13 15:57:07;;;;;;;3.15;2.05;;;8.80;97.50;;;;;;6237784;28;20448;-76
2022/04/13 16:00:15;;;;;;;6.35;2.92;;;8.70;97.60;;;;;;6237766;28;20272;-75
2022/04/13 16:03:20;;;;;;;4.00;1.98;;;8.80;98.60;;;;;;6237648;28;20292;-75
2022/04/13 16:06:27;;;;;;;2.03;1.30;;;8.50;98.50;;;;;;6237873;28;20273;-75
2022/04/13 16:09:32;;;;;;;2.58;1.30;;;8.40;99.10;;;;;;6235593;28;20308;-76
2022/04/13 16:12:37;;;;;;;3.45;1.10;;;8.50;99.60;;;;;;6213432;28;20289;-76
2022/04/13 16:15:44;;;;;;;6.95;1.38;;;8.50;99.30;;;;;;6213635;28;20289;-76
2022/04/13 16:18:50;;;;;;;1.77;1.23;;;8.30;99.90;;;;;;6213054;28;20333;-75
2022/04/13 16:21:56;;;;;;;5.45;1.60;;;8.10;99.90;;;;;;6213167;28;20281;-73